Time;durP1;ratioP1;P1;durP2;ratioP2;P2;SDS_P1;SDS_P2;PMS_P1;PMS_P2;Temp;Humidity;BMP_temperature;BMP_pressure;BME280_temperature;BME280_humidity;BME280_pressure;Samples;Min_cycle;Max_cycle;Signal;HPM_P1;HPM_P2
2023/04/13 00:00:15;;;;;;;19.33;13.83;;;9.30;99.90;;;;;;5034427;28;20269;-81
2023/04/13 00:02:41;;;;;;;19.88;15.50;;;9.30;99.90;;;;;;5035505;28;20281;-81
2023/04/13 00:05:09;;;;;;;16.20;14.05;;;9.30;99.90;;;;;;5035643;28;20170;-80
2023/04/13 00:07:39;;;;;;;22.90;15.10;;;9.40;99.90;;;;;;5035591;28;20701;-81
2023/04/13 00:10:07;;;;;;;20.35;14.20;;;9.40;99.90;;;;;;5035454;28;20178;-80
2023/04/13 00:12:33;;;;;;;18.25;14.65;;;9.40;99.90;;;;;;5035428;28;20602;-81
2023/04/13 00:14:59;;;;;;;21.13;15.75;;;9.40;99.90;;;;;;5034000;28;20175;-81
2023/04/13 00:17:26;;;;;;;17.93;14.80;;;9.30;99.90;;;;;;5035128;28;20209;-81
2023/04/13 00:19:52;;;;;;;18.42;14.35;;;9.20;99.90;;;;;;5033898;28;20411;-80
2023/04/13 00:22:19;;;;;;;22.08;15.93;;;9.20;99.90;;;;;;5033854;28;20687;-80
2023/04/13 00:24:44;;;;;;;20.80;16.25;;;9.10;99.90;;;;;;5033768;28;20213;-81
2023/04/13 00:27:11;;;;;;;18.27;14.70;;;9.10;99.90;;;;;;5035130;28;20558;-81
2023/04/13 00:29:37;;;;;;;18.85;15.40;;;9.10;99.90;;;;;;5035077;28;20171;-80
2023/04/13 00:32:03;;;;;;;21.00;15.82;;;9.10;99.90;;;;;;5033586;28;20697;-80
2023/04/13 00:34:29;;;;;;;17.92;14.77;;;9.10;99.90;;;;;;5033863;28;20205;-81
2023/04/13 00:36:55;;;;;;;19.20;15.27;;;9.20;99.90;;;;;;5034805;28;20296;-80
2023/04/13 00:39:22;;;;;;;17.77;13.73;;;9.20;99.90;;;;;;5034768;28;20175;-80
2023/04/13 00:41:50;;;;;;;21.48;15.50;;;9.30;99.90;;;;;;5053695;28;20969;-81
2023/04/13 00:44:18;;;;;;;24.10;16.13;;;9.40;99.90;;;;;;5055062;28;20229;-81
2023/04/13 00:46:46;;;;;;;19.90;14.90;;;9.40;99.90;;;;;;5036787;28;20244;-80
2023/04/13 00:49:14;;;;;;;18.42;14.10;;;9.40;99.90;;;;;;5055125;28;20247;-81
2023/04/13 00:51:40;;;;;;;17.98;13.75;;;9.40;99.90;;;;;;5036677;28;20205;-81
2023/04/13 00:54:06;;;;;;;20.05;14.27;;;9.40;99.90;;;;;;5055242;28;20224;-81
2023/04/13 00:56:33;;;;;;;18.80;13.93;;;9.40;99.90;;;;;;5036622;28;20189;-81
2023/04/13 00:58:59;;;;;;;19.27;13.70;;;9.40;99.90;;;;;;5054324;28;20182;-79
2023/04/13 01:01:24;;;;;;;19.80;14.60;;;9.40;99.90;;;;;;5054423;28;20626;-81
2023/04/13 01:03:52;;;;;;;22.20;15.60;;;9.50;99.90;;;;;;5035939;28;20993;-81
2023/04/13 01:06:32;;;;;;;18.40;14.50;;;9.40;99.90;;;;;;5036287;28;20433;-81
2023/04/13 01:09:13;;;;;;;18.33;14.60;;;9.50;99.90;;;;;;5036597;28;20178;-81
2023/04/13 01:12:12;;;;;;;20.52;14.52;;;9.50;99.90;;;;;;5036434;28;20557;-81
2023/04/13 01:14:47;;;;;;;18.67;14.77;;;9.60;99.90;;;;;;5003630;28;20666;-80
2023/04/13 01:17:20;;;;;;;21.08;14.80;;;9.50;99.90;;;;;;5036195;28;20197;-81
2023/04/13 01:19:51;;;;;;;20.10;15.55;;;9.50;99.90;;;;;;5036222;28;20177;-81
2023/04/13 01:22:22;;;;;;;19.30;14.13;;;9.50;99.90;;;;;;5054065;28;20202;-81
2023/04/13 01:24:57;;;;;;;19.17;14.57;;;9.40;99.90;;;;;;5036139;28;20213;-81
2023/04/13 01:27:45;;;;;;;19.95;14.73;;;9.40;99.90;;;;;;5054041;28;20197;-81
2023/04/13 01:30:13;;;;;;;23.48;15.30;;;9.40;99.90;;;;;;5036031;28;20247;-81
2023/04/13 01:32:44;;;;;;;21.08;15.65;;;9.40;99.90;;;;;;5035953;28;20197;-81
2023/04/13 01:35:10;;;;;;;22.98;15.93;;;9.30;99.90;;;;;;5053901;28;20635;-81
2023/04/13 01:37:42;;;;;;;18.63;15.13;;;9.20;99.90;;;;;;5053803;28;20206;-81
2023/04/13 01:40:11;;;;;;;23.42;16.50;;;9.20;99.90;;;;;;5053605;28;20221;-81
2023/04/13 01:42:38;;;;;;;20.10;14.70;;;9.10;99.90;;;;;;5053814;28;20194;-81
2023/04/13 01:45:07;;;;;;;19.80;16.00;;;9.10;99.90;;;;;;5053623;28;20198;-81
2023/04/13 01:47:34;;;;;;;22.52;15.65;;;9.10;99.90;;;;;;5053546;28;20201;-81
2023/04/13 01:50:14;;;;;;;20.73;14.13;;;9.10;99.90;;;;;;5035686;28;20189;-81
2023/04/13 01:52:41;;;;;;;20.15;14.57;;;9.00;99.90;;;;;;5053607;28;20233;-81
2023/04/13 01:55:08;;;;;;;24.70;16.05;;;8.90;99.90;;;;;;5053610;28;20198;-80
2023/04/13 01:57:36;;;;;;;22.92;16.17;;;8.90;99.90;;;;;;5035597;28;20202;-80
2023/04/13 02:00:13;;;;;;;19.50;14.75;;;8.90;99.90;;;;;;5053432;28;20532;-80
2023/04/13 02:02:39;;;;;;;20.27;14.90;;;8.80;99.90;;;;;;5053636;28;20201;-80
2023/04/13 02:05:06;;;;;;;18.77;14.93;;;8.80;99.90;;;;;;5035905;28;20181;-81
2023/04/13 02:07:32;;;;;;;18.23;14.10;;;8.70;99.90;;;;;;5035566;28;20979;-81
2023/04/13 02:09:58;;;;;;;17.80;14.43;;;8.50;99.90;;;;;;5053484;28;20253;-81
2023/04/13 02:12:24;;;;;;;17.92;14.60;;;8.60;99.90;;;;;;5053305;28;20427;-81
2023/04/13 02:14:49;;;;;;;20.63;16.07;;;8.50;99.90;;;;;;5053416;28;20588;-80
2023/04/13 02:17:16;;;;;;;20.40;14.97;;;8.50;99.90;;;;;;5057262;28;20192;-81
2023/04/13 02:19:42;;;;;;;18.00;15.13;;;8.50;99.90;;;;;;5039507;28;20422;-80
2023/04/13 02:22:08;;;;;;;17.58;13.88;;;8.50;99.90;;;;;;5039454;28;20197;-81
2023/04/13 02:24:34;;;;;;;16.00;13.80;;;8.50;99.90;;;;;;5057278;28;20216;-81
2023/04/13 02:27:00;;;;;;;19.57;14.90;;;8.60;99.90;;;;;;5039179;28;20232;-81
2023/04/13 02:29:27;;;;;;;19.27;14.50;;;8.60;99.90;;;;;;5039337;28;20469;-81
2023/04/13 02:31:52;;;;;;;19.52;15.27;;;8.60;99.90;;;;;;5057067;28;20225;-81
2023/04/13 02:34:18;;;;;;;17.60;14.73;;;8.60;99.90;;;;;;5039331;28;20189;-80
2023/04/13 02:36:44;;;;;;;17.40;13.90;;;8.60;99.90;;;;;;5039150;28;20670;-80
2023/04/13 02:39:09;;;;;;;17.73;13.90;;;8.50;99.90;;;;;;5057079;28;20220;-80
2023/04/13 02:41:35;;;;;;;20.97;16.77;;;8.50;99.90;;;;;;5035879;28;20249;-81
2023/04/13 02:44:00;;;;;;;20.03;15.30;;;8.50;99.90;;;;;;5035881;28;20217;-81
2023/04/13 02:46:26;;;;;;;18.93;15.90;;;8.50;99.90;;;;;;5037071;28;20181;-81
2023/04/13 02:48:52;;;;;;;23.20;15.07;;;8.60;99.90;;;;;;5037335;28;20305;-81
2023/04/13 02:51:17;;;;;;;22.20;15.23;;;8.50;99.90;;;;;;5036975;28;20202;-81
2023/04/13 02:53:43;;;;;;;20.30;15.20;;;8.50;99.90;;;;;;5037276;28;20674;-80
2023/04/13 02:56:09;;;;;;;21.90;16.13;;;8.50;99.90;;;;;;5035573;28;20170;-80
2023/04/13 02:58:34;;;;;;;20.30;16.37;;;8.50;99.90;;;;;;5035637;28;20190;-80
2023/04/13 03:01:00;;;;;;;20.97;15.10;;;8.50;99.90;;;;;;5035402;28;20261;-81
2023/04/13 03:03:26;;;;;;;21.43;14.63;;;8.50;99.90;;;;;;5036796;28;20211;-81
2023/04/13 03:05:51;;;;;;;21.80;16.43;;;8.50;99.90;;;;;;5035392;28;20178;-81
2023/04/13 03:08:17;;;;;;;21.60;16.63;;;8.40;99.90;;;;;;5035428;28;20244;-81
2023/04/13 03:10:44;;;;;;;19.20;15.50;;;8.40;99.90;;;;;;5035358;28;20213;-80
2023/04/13 03:13:09;;;;;;;22.00;17.05;;;8.30;99.90;;;;;;5035216;28;20443;-81
2023/04/13 03:15:35;;;;;;;19.93;14.97;;;8.20;99.90;;;;;;5035310;28;20545;-80
2023/04/13 03:18:02;;;;;;;27.37;16.90;;;8.20;99.90;;;;;;5036295;28;20241;-80
2023/04/13 03:20:28;;;;;;;30.05;19.05;;;8.30;99.90;;;;;;5035116;28;20213;-81
2023/04/13 03:22:54;;;;;;;22.30;15.87;;;8.30;99.90;;;;;;5036183;28;20252;-81
2023/04/13 03:25:20;;;;;;;22.00;17.55;;;8.30;99.90;;;;;;5035040;28;20276;-81
2023/04/13 03:27:45;;;;;;;20.33;16.10;;;8.40;99.90;;;;;;5034108;28;20202;-80
2023/04/13 03:30:11;;;;;;;22.53;16.00;;;8.40;99.90;;;;;;5036192;28;20182;-80
2023/04/13 03:32:37;;;;;;;18.40;15.07;;;8.30;99.90;;;;;;5036016;28;20209;-80
2023/04/13 03:35:04;;;;;;;21.63;15.13;;;8.20;99.90;;;;;;5034827;28;20404;-80
2023/04/13 03:37:31;;;;;;;19.85;15.15;;;8.10;99.90;;;;;;5035989;28;20446;-81
2023/04/13 03:40:00;;;;;;;18.58;14.50;;;8.10;99.90;;;;;;5039688;28;20221;-81
2023/04/13 03:42:25;;;;;;;22.50;14.13;;;8.20;99.90;;;;;;5037894;28;20202;-80
2023/04/13 03:44:51;;;;;;;22.00;15.10;;;8.20;99.90;;;;;;5037929;28;20292;-81
2023/04/13 03:47:17;;;;;;;18.50;14.70;;;8.10;99.90;;;;;;5037907;28;20510;-81
2023/04/13 03:49:42;;;;;;;19.33;14.47;;;8.20;99.90;;;;;;5037751;28;20170;-81
2023/04/13 03:52:09;;;;;;;19.83;14.80;;;8.20;99.90;;;;;;5037527;28;20605;-80
2023/04/13 03:54:35;;;;;;;24.88;14.95;;;8.30;99.90;;;;;;5037762;28;20268;-81
2023/04/13 03:57:02;;;;;;;19.50;14.75;;;8.30;99.90;;;;;;5055431;28;20727;-81
2023/04/13 03:59:27;;;;;;;18.95;15.02;;;8.40;99.90;;;;;;5055558;28;20174;-80
2023/04/13 04:01:53;;;;;;;18.67;13.70;;;8.40;99.90;;;;;;5037518;28;20199;-82
2023/04/13 04:04:20;;;;;;;18.63;14.87;;;8.50;99.90;;;;;;5055859;28;20217;-81
2023/04/13 04:06:45;;;;;;;21.48;15.48;;;8.50;99.90;;;;;;5037555;28;20624;-81
2023/04/13 04:09:11;;;;;;;18.87;14.63;;;8.60;99.90;;;;;;5037789;28;20205;-81
2023/04/13 04:11:37;;;;;;;16.87;13.60;;;8.60;99.90;;;;;;5033961;28;20850;-80
2023/04/13 04:14:03;;;;;;;22.20;14.67;;;8.60;99.90;;;;;;5035847;28;20641;-80
2023/04/13 04:16:29;;;;;;;19.70;13.93;;;8.70;99.90;;;;;;5018111;28;20206;-81
2023/04/13 04:18:54;;;;;;;19.13;15.15;;;8.70;99.90;;;;;;5017754;28;20543;-80
2023/04/13 04:21:20;;;;;;;20.23;13.87;;;8.70;99.90;;;;;;5035348;28;20174;-80
2023/04/13 04:23:46;;;;;;;18.63;14.13;;;8.70;99.90;;;;;;5017532;28;20223;-80
2023/04/13 04:26:13;;;;;;;16.38;14.20;;;8.80;99.90;;;;;;5016407;28;20782;-81
2023/04/13 04:28:39;;;;;;;20.63;15.27;;;8.80;99.90;;;;;;5033303;28;20579;-80
2023/04/13 04:31:09;;;;;;;20.30;14.67;;;8.90;99.90;;;;;;5013405;28;20212;-81
2023/04/13 04:33:38;;;;;;;18.17;14.35;;;9.00;99.90;;;;;;5031010;28;20430;-80
2023/04/13 04:36:09;;;;;;;16.95;13.48;;;9.00;99.90;;;;;;5049648;28;20174;-82
2023/04/13 04:38:35;;;;;;;18.33;14.00;;;9.00;99.90;;;;;;5052275;28;20186;-81
2023/04/13 04:41:02;;;;;;;15.98;13.30;;;8.90;99.90;;;;;;5033223;28;20236;-80
2023/04/13 04:43:31;;;;;;;18.08;14.68;;;8.90;99.90;;;;;;5051408;28;20302;-81
2023/04/13 04:45:57;;;;;;;16.98;13.50;;;9.00;99.90;;;;;;5034301;28;20174;-80
2023/04/13 04:48:25;;;;;;;14.50;12.17;;;9.00;99.90;;;;;;5033803;28;20215;-80
2023/04/13 04:50:52;;;;;;;17.02;13.45;;;9.10;99.90;;;;;;5056838;28;20895;-81
2023/04/13 04:53:19;;;;;;;20.33;14.45;;;9.10;99.90;;;;;;5023366;28;20629;-81
2023/04/13 04:55:45;;;;;;;16.60;14.30;;;9.10;99.90;;;;;;5044362;28;20261;-80
2023/04/13 04:58:11;;;;;;;14.05;12.55;;;9.00;99.90;;;;;;5030827;28;20229;-81
2023/04/13 05:00:37;;;;;;;16.07;12.30;;;9.10;99.90;;;;;;5049708;28;20185;-80
2023/04/13 05:03:02;;;;;;;15.95;12.25;;;9.10;99.90;;;;;;5033112;28;20221;-81
2023/04/13 05:05:31;;;;;;;18.43;14.17;;;9.00;99.90;;;;;;5051657;28;20204;-81
2023/04/13 05:07:57;;;;;;;14.70;12.43;;;9.00;99.90;;;;;;5047855;28;20454;-81
2023/04/13 05:10:23;;;;;;;17.53;12.17;;;9.10;99.90;;;;;;5051367;28;20181;-81
2023/04/13 05:12:49;;;;;;;14.90;12.18;;;9.00;99.90;;;;;;5034888;28;20202;-81
2023/04/13 05:15:15;;;;;;;14.85;12.00;;;9.00;99.90;;;;;;5038719;28;20179;-80
2023/04/13 05:17:45;;;;;;;14.43;12.27;;;9.10;99.90;;;;;;5031935;28;20210;-82
2023/04/13 05:20:12;;;;;;;16.40;12.38;;;9.10;99.90;;;;;;5034374;28;20266;-81
2023/04/13 05:22:38;;;;;;;14.15;12.57;;;9.10;99.90;;;;;;5034845;28;20625;-80
2023/04/13 05:25:05;;;;;;;15.27;11.70;;;9.20;99.90;;;;;;5051032;28;20248;-81
2023/04/13 05:27:31;;;;;;;14.13;11.93;;;9.20;99.90;;;;;;5050188;28;20217;-80
2023/04/13 05:29:57;;;;;;;16.40;12.30;;;9.20;99.90;;;;;;5050391;28;20386;-81
2023/04/13 05:32:22;;;;;;;13.93;12.00;;;9.20;99.90;;;;;;5049810;28;20434;-81
2023/04/13 05:34:49;;;;;;;13.77;10.60;;;9.40;99.90;;;;;;5047871;28;20173;-81
2023/04/13 05:37:15;;;;;;;14.85;11.68;;;9.40;99.90;;;;;;5033365;28;20204;-81
2023/04/13 05:39:41;;;;;;;14.33;11.00;;;9.40;99.90;;;;;;5022819;28;20655;-82
2023/04/13 05:42:07;;;;;;;17.50;12.33;;;9.40;99.90;;;;;;5044933;28;20417;-82
2023/04/13 05:44:32;;;;;;;11.50;10.10;;;9.50;99.90;;;;;;5015706;28;20752;-81
2023/04/13 05:46:58;;;;;;;14.93;10.77;;;9.50;99.90;;;;;;5031006;28;20428;-80
2023/04/13 05:49:25;;;;;;;11.55;10.27;;;9.60;99.90;;;;;;5013696;28;20187;-83
2023/04/13 05:51:53;;;;;;;12.20;10.90;;;9.60;99.90;;;;;;5013402;28;20544;-82
2023/04/13 05:54:19;;;;;;;12.13;10.40;;;9.70;99.90;;;;;;5031163;28;20218;-80
2023/04/13 05:56:46;;;;;;;14.43;10.27;;;9.80;99.90;;;;;;5026586;28;20222;-81
2023/04/13 05:59:13;;;;;;;16.73;12.18;;;10.00;99.90;;;;;;5051036;28;20918;-80
2023/04/13 06:01:38;;;;;;;15.10;10.90;;;10.10;99.90;;;;;;5052321;28;20197;-80
2023/04/13 06:04:04;;;;;;;12.37;11.10;;;10.10;99.90;;;;;;5053468;28;20275;-83
2023/04/13 06:06:30;;;;;;;14.67;10.63;;;10.20;99.90;;;;;;5034259;28;20200;-80
2023/04/13 06:08:56;;;;;;;12.18;10.85;;;10.20;99.90;;;;;;5053154;28;20419;-81
2023/04/13 06:11:23;;;;;;;13.30;10.10;;;10.20;99.90;;;;;;5030722;28;20236;-81
2023/04/13 06:13:50;;;;;;;13.20;11.10;;;10.30;99.90;;;;;;5032898;28;20236;-80
2023/04/13 06:16:17;;;;;;;12.77;10.95;;;10.40;99.90;;;;;;5032776;28;20174;-81
2023/04/13 06:18:43;;;;;;;13.95;10.38;;;10.50;99.90;;;;;;5031624;28;20516;-80
2023/04/13 06:21:08;;;;;;;12.27;11.07;;;10.60;99.90;;;;;;5050924;28;20428;-81
2023/04/13 06:23:34;;;;;;;15.93;11.37;;;10.80;99.90;;;;;;5049539;28;20615;-81
2023/04/13 06:26:00;;;;;;;13.57;11.27;;;10.80;99.90;;;;;;5032263;28;20197;-81
2023/04/13 06:28:28;;;;;;;15.20;10.37;;;10.90;99.90;;;;;;5053401;28;20197;-82
2023/04/13 06:30:54;;;;;;;12.60;10.07;;;11.00;99.90;;;;;;5052397;28;20181;-81
2023/04/13 06:33:21;;;;;;;14.68;10.73;;;11.10;99.90;;;;;;5051823;28;20209;-80
2023/04/13 06:35:48;;;;;;;11.20;10.00;;;11.20;99.90;;;;;;5025662;28;20182;-81
2023/04/13 06:38:13;;;;;;;10.65;9.65;;;11.30;99.90;;;;;;5027991;28;20216;-81
2023/04/13 06:40:39;;;;;;;12.20;10.20;;;11.40;99.90;;;;;;5048399;28;20293;-82
2023/04/13 06:43:05;;;;;;;15.30;10.43;;;11.50;99.90;;;;;;5031192;28;20209;-81
2023/04/13 06:45:32;;;;;;;12.13;10.15;;;11.60;99.90;;;;;;5049267;28;20201;-80
2023/04/13 06:47:59;;;;;;;10.45;9.30;;;11.60;99.90;;;;;;5042946;28;20282;-82
2023/04/13 06:50:24;;;;;;;12.05;10.18;;;11.80;99.90;;;;;;5027681;28;20167;-81
2023/04/13 06:52:50;;;;;;;12.33;10.63;;;11.80;99.90;;;;;;5010695;28;20217;-81
2023/04/13 06:55:17;;;;;;;12.30;9.77;;;12.00;99.90;;;;;;5011483;28;20663;-81
2023/04/13 06:57:43;;;;;;;16.73;10.70;;;12.10;99.90;;;;;;5010886;28;20508;-81
2023/04/13 07:00:10;;;;;;;10.57;9.53;;;12.30;99.90;;;;;;5028762;28;20174;-81
2023/04/13 07:02:36;;;;;;;15.20;9.55;;;12.30;99.90;;;;;;5030055;28;20486;-81
2023/04/13 07:05:02;;;;;;;9.17;8.23;;;12.30;99.90;;;;;;5036126;28;20256;-82
2023/04/13 07:07:27;;;;;;;11.27;8.73;;;12.30;99.90;;;;;;5038059;28;20966;-81
2023/04/13 07:09:53;;;;;;;9.60;8.50;;;12.40;99.90;;;;;;5038587;28;20654;-80
2023/04/13 07:12:19;;;;;;;15.60;9.40;;;12.60;99.90;;;;;;5056130;28;20206;-81
2023/04/13 07:14:48;;;;;;;10.80;8.30;;;12.70;99.90;;;;;;5038110;28;20178;-81
2023/04/13 07:17:15;;;;;;;12.13;9.47;;;12.90;99.90;;;;;;5038064;28;20198;-81
2023/04/13 07:19:48;;;;;;;13.20;9.13;;;13.00;99.90;;;;;;5055744;28;20410;-80
2023/04/13 07:22:14;;;;;;;11.93;9.00;;;13.20;99.90;;;;;;5053829;28;20915;-82
2023/04/13 07:24:40;;;;;;;11.07;8.53;;;13.30;99.90;;;;;;5036827;28;20498;-81
2023/04/13 07:27:07;;;;;;;9.00;7.73;;;13.50;99.90;;;;;;5057922;28;20479;-81
2023/04/13 07:29:32;;;;;;;8.47;7.50;;;13.60;99.90;;;;;;5031106;28;20189;-81
2023/04/13 07:32:01;;;;;;;8.77;7.67;;;13.80;99.90;;;;;;5035697;28;20826;-81
2023/04/13 07:34:27;;;;;;;7.43;6.57;;;14.00;99.90;;;;;;5033617;28;20583;-80
2023/04/13 07:36:52;;;;;;;7.67;6.63;;;14.00;99.90;;;;;;5015819;28;20442;-80
2023/04/13 07:39:18;;;;;;;7.10;6.40;;;14.10;99.90;;;;;;5015726;28;20447;-82
2023/04/13 07:41:45;;;;;;;6.70;5.40;;;14.20;99.90;;;;;;5039735;28;20942;-81
2023/04/13 07:44:13;;;;;;;6.70;6.10;;;14.30;99.90;;;;;;5064764;28;20511;-83
2023/04/13 07:46:39;;;;;;;6.63;5.93;;;14.30;99.90;;;;;;5043504;28;20519;-82
2023/04/13 07:49:05;;;;;;;12.10;7.20;;;14.50;99.90;;;;;;5034112;28;20455;-81
2023/04/13 07:51:33;;;;;;;6.93;5.67;;;14.50;99.90;;;;;;5032669;28;20204;-81
2023/04/13 07:53:59;;;;;;;6.87;6.20;;;14.70;99.90;;;;;;5023795;28;20455;-82
2023/04/13 07:56:25;;;;;;;6.90;6.20;;;14.90;99.90;;;;;;5040062;28;20941;-84
2023/04/13 07:58:51;;;;;;;6.73;5.67;;;14.90;99.90;;;;;;5053702;28;20423;-82
2023/04/13 08:01:17;;;;;;;6.77;4.73;;;15.10;99.90;;;;;;5034202;28;20426;-84
2023/04/13 08:03:43;;;;;;;7.77;5.37;;;15.20;99.90;;;;;;5019395;28;20214;-82
2023/04/13 08:06:10;;;;;;;8.33;4.93;;;15.40;99.90;;;;;;5012252;28;20431;-83
2023/04/13 08:08:36;;;;;;;7.40;4.80;;;15.50;99.90;;;;;;5011392;28;20186;-81
2023/04/13 08:11:02;;;;;;;8.67;5.07;;;15.70;99.90;;;;;;5027665;28;20992;-82
2023/04/13 08:13:28;;;;;;;5.33;4.50;;;15.90;99.90;;;;;;5028575;28;20971;-81
2023/04/13 08:15:56;;;;;;;4.57;4.10;;;16.10;99.90;;;;;;5024275;28;20404;-83
2023/04/13 08:18:22;;;;;;;5.60;4.30;;;16.30;99.90;;;;;;5026081;28;20604;-82
2023/04/13 08:20:49;;;;;;;7.23;4.30;;;16.50;99.90;;;;;;5028940;28;20423;-82
2023/04/13 08:23:15;;;;;;;4.90;4.30;;;16.50;99.90;;;;;;5032294;28;20461;-82
2023/04/13 08:25:40;;;;;;;6.33;4.30;;;16.50;99.90;;;;;;5030020;28;20758;-82
2023/04/13 08:28:06;;;;;;;7.60;4.40;;;16.70;99.90;;;;;;5050823;28;20753;-83
2023/04/13 08:30:33;;;;;;;5.27;4.10;;;16.80;99.60;;;;;;5050671;28;20918;-81
2023/04/13 08:32:59;;;;;;;5.57;3.80;;;16.80;98.20;;;;;;5031780;28;20542;-82
2023/04/13 08:35:25;;;;;;;6.80;3.90;;;16.90;98.10;;;;;;5034189;28;20769;-81
2023/04/13 08:37:52;;;;;;;4.20;3.80;;;16.90;97.20;;;;;;5029017;28;20464;-82
2023/04/13 08:40:19;;;;;;;4.27;3.63;;;17.00;96.70;;;;;;5044764;28;20320;-82
2023/04/13 08:42:46;;;;;;;5.77;3.03;;;17.20;95.80;;;;;;5033202;28;20463;-81
2023/04/13 08:45:12;;;;;;;4.03;3.40;;;17.30;94.40;;;;;;5048805;28;20495;-83
2023/04/13 08:47:39;;;;;;;5.03;3.63;;;17.60;94.40;;;;;;5046858;28;20443;-83
2023/04/13 08:50:06;;;;;;;3.37;2.80;;;18.30;93.30;;;;;;5048247;28;20463;-82
2023/04/13 08:52:34;;;;;;;4.20;3.47;;;19.20;92.00;;;;;;5044759;28;20457;-84
2023/04/13 08:55:02;;;;;;;4.87;3.20;;;20.20;90.40;;;;;;5030228;28;20736;-82
2023/04/13 08:57:33;;;;;;;3.37;3.07;;;20.70;85.90;;;;;;5048931;28;20533;-83
2023/04/13 09:00:00;;;;;;;4.77;3.10;;;21.00;83.00;;;;;;5031344;28;20422;-84
2023/04/13 09:02:35;;;;;;;5.27;3.30;;;21.10;83.80;;;;;;5032109;28;20781;-82
2023/04/13 09:05:12;;;;;;;8.50;3.47;;;20.80;85.10;;;;;;5031444;28;20463;-81
2023/04/13 09:07:38;;;;;;;6.70;3.90;;;21.00;83.80;;;;;;5050058;28;21088;-82
2023/04/13 09:10:06;;;;;;;3.90;3.27;;;21.20;82.50;;;;;;5033832;28;20456;-84
2023/04/13 09:12:33;;;;;;;3.47;3.17;;;21.10;81.60;;;;;;5033557;28;20454;-82
2023/04/13 09:15:01;;;;;;;4.40;2.90;;;20.90;81.80;;;;;;5033559;28;20421;-80
2023/04/13 09:17:31;;;;;;;3.57;3.27;;;20.90;81.60;;;;;;5030723;28;20206;-82
2023/04/13 09:20:11;;;;;;;7.80;3.17;;;21.00;81.00;;;;;;5029736;28;20426;-82
2023/04/13 09:22:36;;;;;;;4.57;3.00;;;21.00;80.20;;;;;;5047801;28;21055;-83
2023/04/13 09:25:04;;;;;;;3.43;2.40;;;20.60;78.30;;;;;;5047901;28;20469;-81
2023/04/13 09:27:29;;;;;;;6.33;3.23;;;20.20;76.00;;;;;;5030102;28;20201;-82
2023/04/13 09:29:56;;;;;;;5.37;3.10;;;20.00;76.70;;;;;;5031933;28;20415;-81
2023/04/13 09:32:26;;;;;;;4.90;3.80;;;19.70;81.60;;;;;;5036598;28;20244;-81
2023/04/13 09:35:02;;;;;;;5.83;3.50;;;19.70;80.00;;;;;;5032911;28;20427;-84
2023/04/13 09:37:28;;;;;;;3.23;2.93;;;19.60;78.60;;;;;;5032246;28;20450;-83
2023/04/13 09:39:54;;;;;;;4.00;3.40;;;19.60;78.70;;;;;;5048274;28;20996;-82
2023/04/13 09:42:19;;;;;;;4.50;3.30;;;19.50;80.90;;;;;;5049336;28;20534;-82
2023/04/13 09:44:56;;;;;;;4.20;3.40;;;19.60;82.30;;;;;;5031414;28;20220;-82
2023/04/13 09:47:24;;;;;;;3.90;3.57;;;19.60;79.70;;;;;;5029852;28;20229;-82
2023/04/13 09:49:51;;;;;;;3.97;3.67;;;19.60;81.50;;;;;;5029801;28;20418;-81
2023/04/13 09:52:23;;;;;;;7.43;3.50;;;19.70;81.30;;;;;;5046240;28;20429;-82
2023/04/13 09:54:54;;;;;;;4.37;2.93;;;19.60;81.50;;;;;;5013686;28;20894;-82
2023/04/13 09:57:24;;;;;;;4.60;2.67;;;19.70;79.70;;;;;;5012896;28;20470;-82
2023/04/13 09:59:52;;;;;;;4.87;3.23;;;19.70;80.20;;;;;;5026191;28;20421;-82
2023/04/13 10:02:18;;;;;;;5.70;3.30;;;19.60;81.10;;;;;;5043931;28;20437;-82
2023/04/13 10:04:45;;;;;;;4.43;3.37;;;19.60;80.70;;;;;;5026790;28;20657;-82
2023/04/13 10:07:12;;;;;;;6.30;3.80;;;19.80;80.90;;;;;;5025890;28;20826;-81
2023/04/13 10:09:38;;;;;;;5.87;4.10;;;19.70;81.30;;;;;;5035966;28;21013;-82
2023/04/13 10:12:05;;;;;;;4.33;3.33;;;19.80;81.60;;;;;;5016839;28;20451;-82
2023/04/13 10:14:36;;;;;;;4.70;3.10;;;20.10;82.90;;;;;;5015245;28;20477;-82
2023/04/13 10:17:11;;;;;;;4.20;3.43;;;20.30;79.30;;;;;;5045649;28;20462;-81
2023/04/13 10:19:48;;;;;;;4.27;3.43;;;20.20;80.20;;;;;;5029783;28;20981;-82
2023/04/13 10:22:15;;;;;;;5.20;3.40;;;20.30;81.30;;;;;;5029899;28;21204;-82
2023/04/13 10:24:42;;;;;;;3.43;3.17;;;20.40;80.50;;;;;;5034902;28;20479;-84
2023/04/13 10:27:21;;;;;;;4.50;3.27;;;20.40;79.40;;;;;;5027520;28;20861;-82
2023/04/13 10:29:47;;;;;;;4.03;2.90;;;20.20;79.00;;;;;;5028637;28;20436;-81
2023/04/13 10:32:24;;;;;;;4.00;3.60;;;20.00;78.50;;;;;;5047284;28;20449;-82
2023/04/13 10:34:50;;;;;;;3.53;3.23;;;20.10;78.10;;;;;;5047149;28;20442;-84
2023/04/13 10:37:27;;;;;;;2.90;2.60;;;20.20;79.60;;;;;;5033255;28;20503;-82
2023/04/13 10:40:05;;;;;;;3.30;3.00;;;20.30;78.10;;;;;;5031742;28;20488;-81
2023/04/13 10:42:46;;;;;;;5.20;2.70;;;20.50;77.50;;;;;;5015825;28;21009;-82
2023/04/13 10:45:26;;;;;;;2.97;2.37;;;20.50;77.70;;;;;;5053418;28;20462;-84
2023/04/13 10:47:57;;;;;;;2.53;2.30;;;20.60;76.60;;;;;;5034541;28;20450;-82
2023/04/13 10:50:26;;;;;;;4.47;2.80;;;20.60;75.20;;;;;;5032809;28;20502;-82
2023/04/13 10:53:06;;;;;;;3.47;3.17;;;20.50;76.20;;;;;;5035485;28;20459;-83
2023/04/13 10:55:33;;;;;;;3.80;3.00;;;20.40;76.60;;;;;;5029126;28;20469;-82
2023/04/13 10:58:00;;;;;;;6.67;3.20;;;20.30;78.40;;;;;;5050140;28;20467;-82
2023/04/13 11:00:29;;;;;;;4.10;3.70;;;20.50;79.20;;;;;;5031308;28;20429;-83
2023/04/13 11:02:56;;;;;;;4.33;3.43;;;20.50;78.10;;;;;;5051026;28;20950;-83
2023/04/13 11:05:23;;;;;;;4.30;3.20;;;20.40;78.50;;;;;;5032752;28;20462;-82
2023/04/13 11:07:50;;;;;;;6.27;4.50;;;20.40;78.60;;;;;;5025494;28;20460;-82
2023/04/13 11:10:22;;;;;;;4.90;2.80;;;20.40;79.30;;;;;;5030676;28;21002;-81
2023/04/13 11:12:50;;;;;;;3.93;2.60;;;20.50;78.60;;;;;;5038457;28;20466;-82
2023/04/13 11:15:25;;;;;;;2.67;2.47;;;20.60;79.90;;;;;;5034958;28;20430;-82
2023/04/13 11:17:56;;;;;;;2.73;2.53;;;20.60;78.10;;;;;;5047507;28;20466;-82
2023/04/13 11:20:33;;;;;;;5.70;2.57;;;20.60;78.40;;;;;;5034194;28;20423;-83
2023/04/13 11:23:02;;;;;;;6.95;2.85;;;20.70;78.20;;;;;;5031561;28;20988;-81
2023/04/13 11:25:28;;;;;;;4.43;2.93;;;20.70;78.70;;;;;;5055398;28;20464;-82
2023/04/13 11:27:59;;;;;;;6.23;2.40;;;20.70;79.20;;;;;;5054081;28;20954;-82
2023/04/13 11:30:25;;;;;;;3.50;3.00;;;20.70;79.50;;;;;;5035437;28;20434;-82
2023/04/13 11:32:52;;;;;;;3.23;2.90;;;20.70;78.30;;;;;;5052694;28;20561;-83
2023/04/13 11:35:19;;;;;;;6.43;2.80;;;20.80;79.90;;;;;;5037858;28;20411;-82
2023/04/13 11:37:48;;;;;;;3.20;2.90;;;20.90;78.70;;;;;;5047150;28;20990;-82
2023/04/13 11:40:16;;;;;;;4.37;3.53;;;20.90;78.40;;;;;;5030211;28;20475;-82
2023/04/13 11:42:53;;;;;;;3.07;2.80;;;21.00;78.00;;;;;;5014924;28;20459;-81
2023/04/13 11:45:21;;;;;;;5.67;2.90;;;21.10;78.80;;;;;;5029753;28;20463;-82
2023/04/13 11:47:48;;;;;;;4.60;2.73;;;21.30;78.90;;;;;;5029124;28;20462;-81
2023/04/13 11:50:15;;;;;;;4.20;2.73;;;21.40;77.80;;;;;;5048308;28;20616;-81
2023/04/13 11:52:42;;;;;;;3.33;3.03;;;21.40;78.10;;;;;;5033791;28;20446;-81
2023/04/13 11:55:08;;;;;;;4.37;2.57;;;21.50;78.70;;;;;;5030046;28;20511;-82
2023/04/13 11:57:34;;;;;;;3.70;2.73;;;21.50;77.10;;;;;;5052060;28;20473;-82
2023/04/13 12:00:01;;;;;;;5.27;2.50;;;21.40;77.20;;;;;;5043921;28;20794;-81
2023/04/13 12:02:29;;;;;;;3.07;2.60;;;21.30;76.90;;;;;;5030312;28;20467;-81
2023/04/13 12:04:55;;;;;;;6.73;2.93;;;21.40;78.10;;;;;;5030243;28;20460;-82
2023/04/13 12:07:21;;;;;;;2.07;1.90;;;21.30;76.30;;;;;;5033304;28;20482;-81
2023/04/13 12:09:52;;;;;;;4.57;2.87;;;21.20;75.70;;;;;;5037888;28;20923;-82
2023/04/13 12:12:23;;;;;;;7.20;3.00;;;21.10;76.70;;;;;;5036548;28;21253;-82
2023/04/13 12:14:59;;;;;;;4.80;2.80;;;21.10;76.60;;;;;;5052083;28;20442;-81
2023/04/13 12:17:32;;;;;;;3.83;2.60;;;21.10;77.40;;;;;;5020979;28;20470;-82
2023/04/13 12:19:59;;;;;;;3.40;2.30;;;21.20;77.90;;;;;;5035895;28;20414;-82
2023/04/13 12:22:38;;;;;;;5.03;2.23;;;21.30;78.20;;;;;;5028954;28;20616;-81
2023/04/13 12:25:21;;;;;;;6.77;3.00;;;21.40;78.10;;;;;;5017236;28;20544;-83
2023/04/13 12:27:51;;;;;;;5.13;2.80;;;21.30;76.50;;;;;;5028609;28;20471;-82
2023/04/13 12:30:18;;;;;;;3.40;2.67;;;21.20;77.00;;;;;;5054865;28;20395;-82
2023/04/13 12:32:51;;;;;;;4.47;3.37;;;21.20;78.60;;;;;;5054110;28;20446;-82
2023/04/13 12:35:20;;;;;;;6.57;2.57;;;21.20;77.10;;;;;;5036421;28;20506;-82
2023/04/13 12:37:47;;;;;;;3.73;2.80;;;21.10;78.10;;;;;;5055209;28;20445;-81
2023/04/13 12:40:15;;;;;;;3.43;1.90;;;21.20;78.40;;;;;;5015249;28;20543;-82
2023/04/13 12:42:47;;;;;;;2.87;2.23;;;21.20;78.90;;;;;;5011295;28;20804;-81